Time;durP1;ratioP1;P1;durP2;ratioP2;P2;SDS_P1;SDS_P2;PMS_P1;PMS_P2;Temp;Humidity;BMP_temperature;BMP_pressure;BME280_temperature;BME280_humidity;BME280_pressure;Samples;Min_cycle;Max_cycle;Signal;HPM_P1;HPM_P2
2021/05/15 00:01:25;;;;;;;18.07;12.33;;;13.10;99.90;;;;;;4427879;32;20518;-70
2021/05/15 00:03:51;;;;;;;17.00;12.70;;;13.10;99.90;;;;;;4426735;32;20146;-70
2021/05/15 00:06:17;;;;;;;18.50;12.73;;;13.10;99.90;;;;;;4426599;32;20167;-72
2021/05/15 00:08:42;;;;;;;17.63;12.70;;;13.20;99.90;;;;;;4426892;32;20505;-71
2021/05/15 00:11:08;;;;;;;19.80;12.23;;;13.10;99.90;;;;;;4426885;32;20127;-70
2021/05/15 00:13:34;;;;;;;19.93;12.90;;;13.10;99.90;;;;;;4426719;32;20202;-71
2021/05/15 00:16:00;;;;;;;19.53;13.43;;;13.20;99.90;;;;;;4426836;32;20135;-71
2021/05/15 00:18:26;;;;;;;17.73;12.17;;;13.10;99.90;;;;;;4426724;32;20495;-71
2021/05/15 00:20:52;;;;;;;19.27;12.93;;;13.10;99.90;;;;;;4428251;32;20131;-70
2021/05/15 00:23:18;;;;;;;19.40;12.73;;;13.00;99.90;;;;;;4428189;32;20143;-71
2021/05/15 00:25:43;;;;;;;21.07;12.80;;;13.10;99.90;;;;;;4426703;32;20127;-69
2021/05/15 00:28:09;;;;;;;19.73;12.53;;;12.90;99.90;;;;;;4426645;32;20138;-68
2021/05/15 00:30:35;;;;;;;18.37;12.50;;;12.90;99.90;;;;;;4428005;32;20135;-69
2021/05/15 00:33:00;;;;;;;19.83;12.20;;;12.90;99.90;;;;;;4426533;32;20138;-71
2021/05/15 00:35:26;;;;;;;18.37;12.20;;;12.80;99.90;;;;;;4425715;32;20178;-72
2021/05/15 00:37:52;;;;;;;19.37;13.53;;;12.80;99.90;;;;;;4427850;32;20533;-72
2021/05/15 00:40:18;;;;;;;18.20;12.80;;;12.80;99.90;;;;;;4426378;32;20138;-71
2021/05/15 00:42:46;;;;;;;19.57;12.87;;;12.80;99.90;;;;;;4426055;32;20151;-71
2021/05/15 00:45:13;;;;;;;18.93;13.23;;;12.70;99.90;;;;;;4426581;32;20142;-71
2021/05/15 00:47:39;;;;;;;18.53;12.83;;;12.70;99.90;;;;;;4427783;32;20158;-71
2021/05/15 00:50:06;;;;;;;18.70;12.80;;;12.70;99.90;;;;;;4427744;32;20519;-71
2021/05/15 00:52:36;;;;;;;19.47;12.83;;;12.70;99.90;;;;;;4427550;32;20161;-72
2021/05/15 00:55:13;;;;;;;20.33;13.07;;;12.80;99.90;;;;;;4426245;32;20520;-71
2021/05/15 00:57:39;;;;;;;21.27;13.07;;;12.80;99.90;;;;;;4426106;32;20162;-75
2021/05/15 01:00:09;;;;;;;17.30;12.63;;;12.80;99.90;;;;;;4427721;32;20130;-72
2021/05/15 01:02:35;;;;;;;19.33;13.47;;;12.70;99.90;;;;;;4427574;32;20154;-72
2021/05/15 01:05:01;;;;;;;20.67;13.70;;;12.80;99.90;;;;;;4426126;32;20437;-73
2021/05/15 01:07:26;;;;;;;20.37;13.87;;;12.70;99.90;;;;;;4425897;32;20174;-73
2021/05/15 01:09:52;;;;;;;20.63;13.83;;;12.70;99.90;;;;;;4427578;32;20196;-73
2021/05/15 01:12:18;;;;;;;19.40;13.50;;;12.60;99.90;;;;;;4425982;32;20177;-73
2021/05/15 01:14:44;;;;;;;19.23;12.90;;;12.60;99.90;;;;;;4426026;32;20387;-73
2021/05/15 01:17:10;;;;;;;18.40;13.23;;;12.60;99.90;;;;;;4425912;32;20141;-73
2021/05/15 01:19:37;;;;;;;20.83;13.73;;;12.60;99.90;;;;;;4425875;32;20244;-70
2021/05/15 01:22:12;;;;;;;20.67;13.57;;;12.50;99.90;;;;;;4425720;32;20154;-72
2021/05/15 01:24:41;;;;;;;21.23;14.13;;;12.50;99.90;;;;;;4425896;32;20528;-71
2021/05/15 01:27:09;;;;;;;23.70;15.13;;;12.50;99.90;;;;;;4425494;32;20381;-71
2021/05/15 01:29:36;;;;;;;22.63;14.33;;;12.40;99.90;;;;;;4425720;32;20181;-72
2021/05/15 01:32:03;;;;;;;22.40;15.00;;;12.20;99.90;;;;;;4427033;32;20170;-72
2021/05/15 01:34:30;;;;;;;20.30;14.50;;;12.30;99.90;;;;;;4425718;32;20196;-72
2021/05/15 01:36:56;;;;;;;35.33;15.63;;;12.30;99.90;;;;;;4425548;32;20151;-73
2021/05/15 01:39:22;;;;;;;21.37;14.63;;;12.30;99.90;;;;;;4424374;32;20192;-72
2021/05/15 01:41:48;;;;;;;22.73;15.03;;;12.20;99.90;;;;;;4418664;32;20196;-73
2021/05/15 01:44:16;;;;;;;22.93;14.53;;;12.20;99.90;;;;;;4426924;32;20173;-72
2021/05/15 01:46:42;;;;;;;23.37;15.40;;;12.10;99.90;;;;;;4425492;32;20249;-73
2021/05/15 01:49:08;;;;;;;23.80;15.40;;;12.10;99.90;;;;;;4425452;32;20143;-71
2021/05/15 01:51:33;;;;;;;25.97;15.30;;;12.10;99.90;;;;;;4425154;32;20131;-70
2021/05/15 01:54:00;;;;;;;23.30;14.33;;;12.10;99.90;;;;;;4425340;32;20161;-70
2021/05/15 01:56:30;;;;;;;24.53;16.13;;;12.10;99.90;;;;;;4426846;32;20138;-72
2021/05/15 01:58:56;;;;;;;22.17;14.40;;;12.00;99.90;;;;;;4425643;32;20135;-71
2021/05/15 02:01:24;;;;;;;22.50;14.23;;;12.00;99.90;;;;;;4426617;32;20399;-73
2021/05/15 02:03:51;;;;;;;20.70;14.37;;;12.00;99.90;;;;;;4424684;32;20166;-72
2021/05/15 02:06:16;;;;;;;19.57;13.50;;;12.10;99.90;;;;;;4425295;32;20228;-73
2021/05/15 02:08:45;;;;;;;18.17;13.27;;;12.20;99.90;;;;;;4426692;32;20154;-72
2021/05/15 02:11:18;;;;;;;18.20;12.20;;;12.10;99.90;;;;;;4425124;32;20511;-74
2021/05/15 02:13:45;;;;;;;19.67;12.87;;;12.10;99.90;;;;;;4425109;32;20135;-72
2021/05/15 02:16:11;;;;;;;18.57;11.77;;;12.10;99.90;;;;;;4425032;32;20173;-74
2021/05/15 02:18:38;;;;;;;19.00;12.30;;;11.90;99.90;;;;;;4425091;32;20480;-73
2021/05/15 02:21:05;;;;;;;18.03;11.70;;;12.00;99.90;;;;;;4424860;32;20173;-73
2021/05/15 02:23:32;;;;;;;16.77;10.53;;;12.00;99.90;;;;;;4426567;32;20151;-73
2021/05/15 02:25:58;;;;;;;15.43;10.87;;;12.00;99.90;;;;;;4424749;32;20199;-73
2021/05/15 02:28:24;;;;;;;15.23;10.20;;;12.00;99.90;;;;;;4426354;32;20150;-73
2021/05/15 02:30:51;;;;;;;14.20;9.93;;;11.90;99.90;;;;;;4424885;32;20181;-74
2021/05/15 02:33:17;;;;;;;14.70;9.90;;;12.00;99.90;;;;;;4424551;32;20215;-73
2021/05/15 02:35:43;;;;;;;15.23;9.60;;;11.90;99.90;;;;;;4423469;32;20135;-79
2021/05/15 02:38:11;;;;;;;12.77;9.47;;;12.00;99.90;;;;;;4423024;32;20150;-80
2021/05/15 02:40:38;;;;;;;12.80;9.10;;;12.00;99.90;;;;;;4423613;32;20200;-79
2021/05/15 02:43:04;;;;;;;13.80;8.53;;;12.00;99.90;;;;;;4422270;32;20269;-79
2021/05/15 02:45:31;;;;;;;12.33;8.53;;;12.00;99.90;;;;;;4422129;32;20151;-80
2021/05/15 02:47:57;;;;;;;13.23;8.80;;;12.00;99.90;;;;;;4422592;32;20652;-79
2021/05/15 02:50:24;;;;;;;11.37;8.57;;;12.00;99.90;;;;;;4423716;32;20155;-79
2021/05/15 02:52:50;;;;;;;11.50;8.43;;;12.00;99.90;;;;;;4424519;32;20570;-78
2021/05/15 02:55:19;;;;;;;14.03;8.80;;;12.00;99.90;;;;;;4424311;32;20239;-78
2021/05/15 02:57:46;;;;;;;13.57;8.17;;;12.00;99.90;;;;;;4419535;32;20543;-78
2021/05/15 03:00:19;;;;;;;11.33;8.10;;;12.10;99.90;;;;;;4420103;32;20147;-79
2021/05/15 03:02:46;;;;;;;12.97;8.40;;;12.10;99.90;;;;;;4425850;32;20217;-79
2021/05/15 03:05:15;;;;;;;14.30;8.40;;;12.20;99.90;;;;;;4425985;32;20135;-79
2021/05/15 03:07:40;;;;;;;12.00;8.13;;;12.20;99.90;;;;;;4417649;32;20151;-78
2021/05/15 03:10:09;;;;;;;11.40;8.67;;;12.30;99.90;;;;;;4410460;32;20238;-78
2021/05/15 03:12:35;;;;;;;14.00;8.40;;;12.30;99.90;;;;;;4420496;32;20155;-79
2021/05/15 03:15:01;;;;;;;11.73;8.00;;;12.30;99.90;;;;;;4422782;32;20158;-79
2021/05/15 03:17:27;;;;;;;10.83;7.67;;;12.30;99.90;;;;;;4425665;32;20155;-78
2021/05/15 03:19:53;;;;;;;11.47;7.57;;;12.40;99.90;;;;;;4425699;32;20128;-78
2021/05/15 03:22:21;;;;;;;11.50;7.07;;;12.50;99.90;;;;;;4423961;32;20159;-79
2021/05/15 03:24:47;;;;;;;10.00;7.00;;;12.60;99.90;;;;;;4424231;32;20197;-79
2021/05/15 03:27:13;;;;;;;11.03;6.70;;;12.60;99.90;;;;;;4425665;32;20136;-78
2021/05/15 03:29:38;;;;;;;9.80;6.93;;;12.60;99.90;;;;;;4424212;32;20192;-78
2021/05/15 03:32:05;;;;;;;8.60;6.37;;;12.60;99.90;;;;;;4424221;32;20157;-78
2021/05/15 03:34:30;;;;;;;11.70;6.93;;;12.70;99.90;;;;;;4424270;32;20521;-78
2021/05/15 03:36:56;;;;;;;10.47;6.60;;;12.70;99.90;;;;;;4424139;32;20181;-78
2021/05/15 03:39:22;;;;;;;9.77;6.33;;;12.70;99.90;;;;;;4423395;32;20169;-79
2021/05/15 03:41:48;;;;;;;9.70;6.63;;;12.60;99.90;;;;;;4424165;32;20398;-79
2021/05/15 03:44:14;;;;;;;9.70;6.17;;;12.80;99.90;;;;;;4424659;32;20174;-79
2021/05/15 03:46:41;;;;;;;9.87;6.40;;;12.80;99.90;;;;;;4425597;32;20138;-80
2021/05/15 03:49:07;;;;;;;11.87;6.30;;;12.80;99.90;;;;;;4424104;32;20185;-80
2021/05/15 03:51:34;;;;;;;7.30;5.40;;;12.90;99.90;;;;;;4425544;32;20353;-80
2021/05/15 03:53:59;;;;;;;7.97;6.20;;;12.90;99.90;;;;;;4424036;32;20331;-80
2021/05/15 03:56:25;;;;;;;8.07;5.63;;;13.00;99.90;;;;;;4423883;32;20192;-80
2021/05/15 03:58:52;;;;;;;7.93;5.73;;;13.00;99.90;;;;;;4423469;32;20142;-79
2021/05/15 04:01:18;;;;;;;8.67;5.50;;;12.90;99.90;;;;;;4425482;32;20138;-79
2021/05/15 04:03:44;;;;;;;9.67;5.90;;;12.70;99.90;;;;;;4423766;32;20161;-78
2021/05/15 04:06:10;;;;;;;11.37;6.03;;;12.70;99.90;;;;;;4425373;32;20163;-79
2021/05/15 04:08:35;;;;;;;8.80;5.90;;;12.80;99.90;;;;;;4424226;32;20139;-79
2021/05/15 04:11:01;;;;;;;10.60;6.23;;;12.80;99.90;;;;;;4425298;32;20134;-79
2021/05/15 04:16:02;;;;;;;11.40;6.40;;;12.80;99.90;;;;;;4423863;32;20158;-81
2021/05/15 04:18:30;;;;;;;9.33;5.77;;;12.70;99.90;;;;;;4424101;32;20181;-80
2021/05/15 04:20:56;;;;;;;7.73;5.63;;;12.80;99.90;;;;;;4425327;32;20161;-79
2021/05/15 04:23:22;;;;;;;10.10;5.50;;;12.90;99.90;;;;;;4425202;32;20437;-80
2021/05/15 04:25:49;;;;;;;8.23;5.50;;;13.00;99.90;;;;;;4425423;32;20188;-80
2021/05/15 04:28:16;;;;;;;7.13;5.37;;;13.00;99.90;;;;;;4426633;32;20147;-80
2021/05/15 04:30:42;;;;;;;8.37;5.57;;;13.00;99.90;;;;;;4426745;32;20229;-80
2021/05/15 04:33:08;;;;;;;9.00;5.70;;;13.00;99.90;;;;;;4426762;32;20153;-79
2021/05/15 04:35:34;;;;;;;9.33;5.63;;;13.10;99.90;;;;;;4428196;32;20219;-80
2021/05/15 04:38:01;;;;;;;10.33;6.80;;;13.10;99.90;;;;;;4426668;32;20391;-80
2021/05/15 04:40:29;;;;;;;11.40;7.13;;;13.10;99.90;;;;;;4428078;32;20127;-78
2021/05/15 04:42:56;;;;;;;10.20;6.43;;;13.00;99.90;;;;;;4426781;32;20489;-78
2021/05/15 04:45:22;;;;;;;9.17;6.50;;;13.00;99.90;;;;;;4426437;32;20131;-79
2021/05/15 04:47:48;;;;;;;9.87;6.53;;;13.00;99.90;;;;;;4426598;32;20132;-78
2021/05/15 04:50:14;;;;;;;10.03;6.83;;;12.90;99.90;;;;;;4426304;32;20438;-79
2021/05/15 04:52:40;;;;;;;10.40;6.77;;;13.00;99.90;;;;;;4427916;32;20139;-79
2021/05/15 04:55:07;;;;;;;7.97;6.23;;;13.10;99.90;;;;;;4428141;32;20285;-79
2021/05/15 04:57:32;;;;;;;12.73;7.20;;;13.10;99.90;;;;;;4426191;32;20178;-79
2021/05/15 04:59:58;;;;;;;10.13;6.73;;;13.00;99.90;;;;;;4426572;32;20456;-80
2021/05/15 05:02:24;;;;;;;13.33;7.50;;;13.00;99.90;;;;;;4425588;32;20147;-79
2021/05/15 05:04:50;;;;;;;9.57;6.63;;;13.00;99.90;;;;;;4425888;32;20210;-80
2021/05/15 05:07:16;;;;;;;10.80;6.57;;;13.20;99.90;;;;;;4426156;32;20153;-81
2021/05/15 05:09:42;;;;;;;9.23;6.40;;;13.20;99.90;;;;;;4426398;32;20142;-81
2021/05/15 05:12:10;;;;;;;10.17;6.30;;;13.30;99.90;;;;;;4426483;32;20127;-81
2021/05/15 05:14:38;;;;;;;8.70;6.37;;;13.30;99.90;;;;;;4426194;32;20209;-80
2021/05/15 05:17:05;;;;;;;8.70;6.70;;;13.40;99.90;;;;;;4427724;32;20376;-80
2021/05/15 05:19:31;;;;;;;9.13;6.50;;;13.20;99.90;;;;;;4426096;32;20126;-81
2021/05/15 05:21:58;;;;;;;11.87;7.07;;;13.30;99.90;;;;;;4427161;32;20209;-80
2021/05/15 05:24:24;;;;;;;9.70;6.87;;;13.30;99.90;;;;;;4427016;32;20200;-80
2021/05/15 05:26:49;;;;;;;10.90;7.30;;;13.20;99.90;;;;;;4426042;32;20142;-80
2021/05/15 05:29:15;;;;;;;10.20;6.90;;;13.30;99.90;;;;;;4427661;32;20211;-79
2021/05/15 05:31:44;;;;;;;10.50;6.60;;;13.10;99.90;;;;;;4425864;32;20143;-80
2021/05/15 05:34:10;;;;;;;9.63;5.80;;;13.00;99.90;;;;;;4426722;32;20139;-80
2021/05/15 05:36:37;;;;;;;10.83;5.70;;;13.10;99.90;;;;;;4425771;32;20175;-80
2021/05/15 05:39:11;;;;;;;8.73;6.20;;;13.00;99.90;;;;;;4424746;32;20181;-79
2021/05/15 05:41:37;;;;;;;9.97;6.70;;;12.80;99.90;;;;;;4425660;32;20216;-79
2021/05/15 05:44:04;;;;;;;8.67;6.73;;;12.70;99.90;;;;;;4425253;32;20208;-80
2021/05/15 05:46:31;;;;;;;9.87;6.27;;;12.60;99.90;;;;;;4425567;32;20131;-80
2021/05/15 05:48:56;;;;;;;10.37;7.40;;;12.80;99.90;;;;;;4427087;32;20170;-79
2021/05/15 05:51:22;;;;;;;12.00;6.93;;;12.80;99.90;;;;;;4425428;32;20212;-78
2021/05/15 05:53:49;;;;;;;9.77;7.03;;;12.60;99.90;;;;;;4427145;32;20143;-78
2021/05/15 05:56:15;;;;;;;8.97;6.13;;;12.70;99.90;;;;;;4423660;32;20196;-78
2021/05/15 05:58:44;;;;;;;12.53;7.03;;;12.80;99.90;;;;;;4415235;32;20213;-79
2021/05/15 06:01:10;;;;;;;9.97;6.17;;;12.70;99.90;;;;;;4419586;32;20139;-78
2021/05/15 06:03:35;;;;;;;9.43;5.80;;;12.70;99.90;;;;;;4426754;32;20161;-78
2021/05/15 06:06:02;;;;;;;6.93;5.13;;;12.90;99.90;;;;;;4425302;32;20372;-79
2021/05/15 06:08:27;;;;;;;7.03;4.90;;;12.90;99.90;;;;;;4425307;32;20184;-79
2021/05/15 06:10:54;;;;;;;7.50;5.17;;;13.10;99.90;;;;;;4426713;32;20155;-79
2021/05/15 06:13:20;;;;;;;7.10;4.63;;;13.20;99.90;;;;;;4426706;32;20154;-79
2021/05/15 06:15:46;;;;;;;6.93;4.67;;;13.30;99.90;;;;;;4426410;32;20143;-79
2021/05/15 06:18:12;;;;;;;5.77;4.47;;;13.20;99.90;;;;;;4426581;32;20503;-80
2021/05/15 06:20:37;;;;;;;5.37;4.50;;;13.20;99.90;;;;;;4426571;32;20146;-80
2021/05/15 06:23:03;;;;;;;6.17;4.07;;;13.30;99.90;;;;;;4426440;32;20139;-81
2021/05/15 06:25:29;;;;;;;7.37;4.30;;;13.50;99.90;;;;;;4425070;32;20144;-80
2021/05/15 06:27:55;;;;;;;5.40;3.80;;;13.60;99.90;;;;;;4425391;32;20217;-80
2021/05/15 06:30:22;;;;;;;4.67;3.67;;;13.70;99.90;;;;;;4424745;32;20197;-80
2021/05/15 06:32:48;;;;;;;5.77;3.40;;;13.70;99.90;;;;;;4425074;32;20204;-79
2021/05/15 06:35:14;;;;;;;4.93;3.43;;;13.40;99.90;;;;;;4424504;32;20449;-79
2021/05/15 06:37:40;;;;;;;5.93;3.47;;;13.50;99.90;;;;;;4424810;32;20344;-81
2021/05/15 06:40:07;;;;;;;4.17;3.30;;;13.50;99.90;;;;;;4424504;32;20177;-81
2021/05/15 06:42:34;;;;;;;3.50;3.20;;;13.40;99.90;;;;;;4424497;32;20525;-80
2021/05/15 06:44:59;;;;;;;3.77;3.20;;;13.50;99.90;;;;;;4426356;32;20171;-79
2021/05/15 06:47:25;;;;;;;4.30;3.30;;;13.60;99.90;;;;;;4425718;32;20219;-79
2021/05/15 06:49:51;;;;;;;4.57;3.20;;;13.60;99.90;;;;;;4425433;32;20158;-79
2021/05/15 06:52:17;;;;;;;3.53;3.03;;;13.50;99.90;;;;;;4425616;32;20158;-80
2021/05/15 06:54:46;;;;;;;4.23;3.30;;;13.60;99.90;;;;;;4424568;32;20151;-79
2021/05/15 06:57:12;;;;;;;4.80;2.87;;;13.60;99.90;;;;;;4424884;32;20453;-80
2021/05/15 06:59:37;;;;;;;4.10;3.20;;;13.60;99.90;;;;;;4426007;32;20204;-80
2021/05/15 07:02:03;;;;;;;3.70;2.90;;;13.70;99.90;;;;;;4426098;32;20205;-80
2021/05/15 07:04:29;;;;;;;3.10;2.80;;;13.60;99.90;;;;;;4425798;32;20177;-80
2021/05/15 07:06:55;;;;;;;5.63;3.03;;;13.80;99.90;;;;;;4420890;32;20599;-81
2021/05/15 07:09:21;;;;;;;4.13;2.33;;;13.90;99.90;;;;;;4417450;32;20162;-82
2021/05/15 07:11:50;;;;;;;5.17;2.90;;;14.20;99.90;;;;;;4414324;32;20201;-82
2021/05/15 07:14:17;;;;;;;4.80;3.30;;;14.00;99.90;;;;;;4423701;32;20158;-81
2021/05/15 07:16:43;;;;;;;4.30;3.47;;;14.20;99.90;;;;;;4425787;32;20173;-81
2021/05/15 07:19:09;;;;;;;4.37;3.30;;;14.20;99.90;;;;;;4425569;32;20146;-80
2021/05/15 07:21:35;;;;;;;4.57;3.43;;;14.50;99.90;;;;;;4424193;32;20177;-81
2021/05/15 07:24:01;;;;;;;3.60;3.27;;;14.60;99.90;;;;;;4424024;32;20158;-80
2021/05/15 07:26:27;;;;;;;3.80;3.10;;;14.70;99.90;;;;;;4425506;32;20208;-79
2021/05/15 07:28:53;;;;;;;4.23;3.20;;;14.90;99.90;;;;;;4425540;32;20404;-79
2021/05/15 07:31:19;;;;;;;4.50;2.90;;;15.10;99.90;;;;;;4424065;32;20196;-79
2021/05/15 07:33:45;;;;;;;4.47;2.80;;;15.20;99.90;;;;;;4423874;32;20177;-79
2021/05/15 07:36:10;;;;;;;3.20;2.90;;;15.10;99.90;;;;;;4424470;32;20154;-79
2021/05/15 07:38:37;;;;;;;4.43;2.83;;;15.10;99.90;;;;;;4424840;32;20178;-80
2021/05/15 07:41:04;;;;;;;4.73;2.63;;;15.30;99.90;;;;;;4423763;32;20151;-81
2021/05/15 07:43:30;;;;;;;4.43;3.00;;;15.70;99.90;;;;;;4409421;32;20178;-81
2021/05/15 07:45:59;;;;;;;2.93;2.40;;;15.90;99.90;;;;;;4425410;32;20406;-80
2021/05/15 07:48:29;;;;;;;2.63;2.33;;;16.00;99.90;;;;;;4423322;32;20423;-79
2021/05/15 07:50:59;;;;;;;2.53;2.33;;;15.80;99.90;;;;;;4425537;32;20170;-81
2021/05/15 07:53:26;;;;;;;3.97;2.70;;;15.60;99.90;;;;;;4425532;32;20143;-81
2021/05/15 07:55:52;;;;;;;3.27;2.70;;;15.20;99.90;;;;;;4424049;32;20234;-80
2021/05/15 07:58:19;;;;;;;3.60;2.53;;;15.40;99.90;;;;;;4423580;32;20224;-80
2021/05/15 08:00:45;;;;;;;3.97;2.60;;;15.40;99.90;;;;;;4417847;32;20178;-79
2021/05/15 08:03:11;;;;;;;3.00;2.43;;;15.50;99.90;;;;;;4416788;32;20443;-80
2021/05/15 08:05:37;;;;;;;2.97;2.30;;;15.80;99.90;;;;;;4411114;32;20182;-79
2021/05/15 08:08:03;;;;;;;2.30;2.10;;;15.40;99.90;;;;;;4411674;32;20203;-79
2021/05/15 08:10:30;;;;;;;4.47;2.63;;;15.60;99.90;;;;;;4412514;32;20218;-82
2021/05/15 08:12:57;;;;;;;3.10;2.47;;;15.80;99.90;;;;;;4412193;32;20249;-80
2021/05/15 08:15:23;;;;;;;2.93;2.20;;;15.90;99.40;;;;;;4411639;32;20147;-80
2021/05/15 08:17:50;;;;;;;3.73;2.20;;;15.90;97.40;;;;;;4412559;32;20183;-80
2021/05/15 08:20:16;;;;;;;3.00;1.90;;;15.70;97.90;;;;;;4411594;32;20195;-81
2021/05/15 08:22:42;;;;;;;2.60;2.10;;;16.20;96.50;;;;;;4411824;32;20147;-82
2021/05/15 08:25:09;;;;;;;2.40;2.20;;;16.40;95.20;;;;;;4411266;32;20147;-80
2021/05/15 08:27:38;;;;;;;3.57;2.20;;;16.40;95.10;;;;;;4411616;32;20155;-80
2021/05/15 08:30:09;;;;;;;3.23;2.07;;;16.60;94.70;;;;;;4409470;32;20198;-79
2021/05/15 08:32:35;;;;;;;3.80;2.20;;;17.00;93.30;;;;;;4407883;32;20584;-79
2021/05/15 08:35:01;;;;;;;4.73;2.37;;;17.20;92.60;;;;;;4408193;32;20684;-80
2021/05/15 08:37:27;;;;;;;3.17;2.20;;;17.20;91.80;;;;;;4407994;32;20198;-79
2021/05/15 08:39:54;;;;;;;3.00;2.13;;;17.70;90.50;;;;;;4409168;32;20404;-78
2021/05/15 08:42:21;;;;;;;2.37;2.07;;;18.10;87.20;;;;;;4409643;32;20164;-79
2021/05/15 08:44:48;;;;;;;2.47;2.07;;;18.10;86.90;;;;;;4409854;32;20206;-79
2021/05/15 08:47:18;;;;;;;3.20;2.23;;;17.90;85.90;;;;;;4411830;32;20155;-79
2021/05/15 08:49:46;;;;;;;2.20;2.00;;;18.00;85.10;;;;;;4410855;32;20140;-79
2021/05/15 08:52:13;;;;;;;8.27;1.90;;;18.30;84.10;;;;;;4412702;32;20155;-80
2021/05/15 08:54:39;;;;;;;2.90;1.70;;;18.60;82.80;;;;;;4411262;32;20203;-78
2021/05/15 08:57:05;;;;;;;4.17;1.70;;;18.70;82.60;;;;;;4411238;32;20147;-79
2021/05/15 08:59:31;;;;;;;8.67;2.03;;;18.60;79.80;;;;;;4411003;32;20143;-79
2021/05/15 09:01:57;;;;;;;3.03;1.60;;;19.00;77.90;;;;;;4411787;32;20203;-80
2021/05/15 09:04:44;;;;;;;1.93;1.50;;;19.10;74.20;;;;;;4418874;32;20201;-79
2021/05/15 09:07:11;;;;;;;4.73;1.70;;;18.70;73.90;;;;;;4420447;32;20155;-79
2021/05/15 09:09:38;;;;;;;2.63;1.63;;;18.40;76.30;;;;;;4427026;32;20207;-79
2021/05/15 09:12:05;;;;;;;8.60;1.50;;;18.60;74.20;;;;;;4426674;32;20495;-79
2021/05/15 09:14:32;;;;;;;3.00;1.70;;;18.60;76.20;;;;;;4426091;32;20202;-79
2021/05/15 09:17:00;;;;;;;6.13;2.20;;;18.40;74.10;;;;;;4425354;32;20146;-78
2021/05/15 09:19:29;;;;;;;3.47;1.50;;;18.60;74.20;;;;;;4425154;32;20167;-77
2021/05/15 09:21:59;;;;;;;1.97;1.77;;;18.70;72.30;;;;;;4411337;32;20190;-79
2021/05/15 09:24:31;;;;;;;3.73;1.57;;;18.80;73.50;;;;;;4424778;32;20162;-79
2021/05/15 09:26:59;;;;;;;2.97;1.73;;;19.10;70.40;;;;;;4425540;32;20426;-80
2021/05/15 09:29:39;;;;;;;2.80;1.83;;;19.50;67.10;;;;;;4425037;32;20433;-79
2021/05/15 09:32:06;;;;;;;1.80;1.60;;;19.90;66.20;;;;;;4425254;32;20158;-78
2021/05/15 09:34:44;;;;;;;2.60;1.60;;;19.90;64.70;;;;;;4426623;32;20213;-79
2021/05/15 09:37:25;;;;;;;3.73;1.80;;;20.40;67.50;;;;;;4426683;32;20150;-79
2021/05/15 09:39:53;;;;;;;3.37;1.57;;;20.50;64.30;;;;;;4426867;32;20343;-78
2021/05/15 09:42:20;;;;;;;3.63;1.73;;;20.10;62.60;;;;;;4425023;32;20159;-79
2021/05/15 09:44:47;;;;;;;2.87;1.80;;;20.40;61.30;;;;;;4411414;32;20212;-78
2021/05/15 09:47:18;;;;;;;7.03;2.00;;;20.20;62.20;;;;;;4409931;32;20432;-78
2021/05/15 09:49:45;;;;;;;2.77;1.80;;;20.30;64.10;;;;;;4411512;32;20163;-78
2021/05/15 09:52:12;;;;;;;7.47;1.73;;;20.00;58.90;;;;;;4411163;32;20143;-78
2021/05/15 09:54:44;;;;;;;7.10;2.30;;;20.10;58.90;;;;;;4411137;32;20150;-78
2021/05/15 09:57:18;;;;;;;5.07;1.90;;;20.60;58.90;;;;;;4409814;32;20226;-79
2021/05/15 09:59:47;;;;;;;3.97;1.70;;;20.60;57.60;;;;;;4409467;32;20161;-80
2021/05/15 10:02:17;;;;;;;6.27;2.10;;;20.90;55.20;;;;;;4409551;32;20163;-79
2021/05/15 10:04:46;;;;;;;4.57;2.00;;;20.70;55.70;;;;;;4410120;32;20436;-79
2021/05/15 10:07:17;;;;;;;5.37;2.17;;;20.80;54.70;;;;;;4411199;32;20193;-78
2021/05/15 10:09:44;;;;;;;3.57;2.10;;;20.40;56.80;;;;;;4409578;32;20146;-77
2021/05/15 10:12:17;;;;;;;3.50;2.27;;;20.30;56.30;;;;;;4411463;32;20197;-78
2021/05/15 10:14:44;;;;;;;3.37;2.00;;;20.30;55.80;;;;;;4409609;32;20469;-79
2021/05/15 10:17:11;;;;;;;3.90;1.70;;;20.20;57.20;;;;;;4408412;32;20203;-78
2021/05/15 10:19:38;;;;;;;5.13;1.80;;;21.20;56.70;;;;;;4410489;32;20474;-79
2021/05/15 10:22:04;;;;;;;3.63;2.40;;;21.50;55.70;;;;;;4410437;32;20204;-79
2021/05/15 10:24:34;;;;;;;5.40;2.20;;;21.90;53.20;;;;;;4410193;32;20162;-79
2021/05/15 10:27:04;;;;;;;4.37;2.50;;;22.40;52.70;;;;;;4408883;32;20178;-80
2021/05/15 10:29:52;;;;;;;4.03;2.50;;;22.30;52.30;;;;;;4409942;32;20174;-79
2021/05/15 10:32:20;;;;;;;4.40;2.10;;;21.50;54.30;;;;;;4410203;32;20446;-79
2021/05/15 10:34:56;;;;;;;3.47;2.13;;;21.80;53.50;;;;;;4409432;32;20454;-79
2021/05/15 10:37:23;;;;;;;3.43;2.20;;;22.00;53.80;;;;;;4409515;32;20518;-78
2021/05/15 10:39:50;;;;;;;3.90;2.00;;;22.30;52.10;;;;;;4409217;32;20207;-79
2021/05/15 10:42:32;;;;;;;3.90;2.20;;;23.00;51.20;;;;;;4410761;32;20258;-80
2021/05/15 10:45:01;;;;;;;13.75;2.95;;;22.60;50.70;;;;;;4410427;32;20208;-80
2021/05/15 10:47:39;;;;;;;3.70;2.15;;;22.60;50.30;;;;;;4408962;32;20173;-80
2021/05/15 10:50:16;;;;;;;4.95;2.22;;;23.20;49.60;;;;;;4409805;32;20147;-80
2021/05/15 10:52:48;;;;;;;5.37;2.47;;;23.60;49.20;;;;;;4408691;32;20173;-80
2021/05/15 10:55:35;;;;;;;4.45;2.20;;;23.10;50.20;;;;;;4410551;32;20198;-80
2021/05/15 10:58:13;;;;;;;4.47;2.47;;;22.80;50.10;;;;;;4410289;32;20151;-79
2021/05/15 11:00:40;;;;;;;5.47;2.40;;;23.10;50.10;;;;;;4408779;32;20223;-79
2021/05/15 11:03:07;;;;;;;7.05;2.10;;;22.90;49.40;;;;;;4406699;32;20243;-79
2021/05/15 11:05:42;;;;;;;4.65;2.15;;;23.20;49.80;;;;;;4408507;32;20173;-79
2021/05/15 11:08:23;;;;;;;4.87;2.60;;;24.00;48.50;;;;;;4408637;32;20163;-78
2021/05/15 11:10:51;;;;;;;3.08;2.17;;;23.90;47.10;;;;;;4408497;32;20163;-78
2021/05/15 11:13:18;;;;;;;5.67;2.30;;;23.40;47.60;;;;;;4408493;32;20512;-79
2021/05/15 11:15:45;;;;;;;3.30;2.20;;;23.20;49.40;;;;;;4408541;32;20185;-79
2021/05/15 11:18:12;;;;;;;3.78;2.60;;;23.30;47.30;;;;;;4409820;32;20155;-79
2021/05/15 11:20:43;;;;;;;6.27;2.40;;;23.00;47.20;;;;;;4408702;32;20195;-79
2021/05/15 11:23:19;;;;;;;5.70;2.35;;;23.20;47.90;;;;;;4408497;32;20143;-79
2021/05/15 11:25:57;;;;;;;3.33;2.30;;;23.40;47.00;;;;;;4408539;32;20146;-78
2021/05/15 11:28:26;;;;;;;5.05;2.62;;;24.10;46.00;;;;;;4409489;32;20162;-82
2021/05/15 11:30:54;;;;;;;3.58;2.33;;;23.70;46.40;;;;;;4410109;32;20481;-79
2021/05/15 11:33:23;;;;;;;5.72;2.62;;;23.50;46.90;;;;;;4409404;32;20170;-81
2021/05/15 11:35:58;;;;;;;4.70;2.25;;;23.50;47.20;;;;;;4408086;32;20502;-84
2021/05/15 11:38:27;;;;;;;7.07;2.35;;;23.90;47.10;;;;;;4411862;32;20211;-79
2021/05/15 11:40:56;;;;;;;5.68;2.60;;;24.30;46.30;;;;;;4411235;32;20223;-79
2021/05/15 11:43:25;;;;;;;4.12;2.15;;;23.80;45.60;;;;;;4419309;32;20443;-78
2021/05/15 11:45:52;;;;;;;3.22;2.03;;;23.50;47.10;;;;;;4425758;32;20222;-79
2021/05/15 11:48:22;;;;;;;4.32;2.67;;;23.50;47.50;;;;;;4425889;32;20158;-77
2021/05/15 11:51:09;;;;;;;5.32;2.80;;;24.00;46.60;;;;;;4425922;32;20178;-81
2021/05/15 11:53:41;;;;;;;5.00;2.45;;;23.80;46.40;;;;;;4426295;32;20219;-79
2021/05/15 11:56:15;;;;;;;5.60;2.30;;;24.90;45.00;;;;;;4425681;32;20173;-78
2021/05/15 11:58:47;;;;;;;4.03;2.33;;;25.90;43.80;;;;;;4427875;32;20461;-77
2021/05/15 12:01:18;;;;;;;4.62;2.53;;;26.00;42.40;;;;;;4427722;32;20186;-79
2021/05/15 12:03:46;;;;;;;4.00;2.20;;;25.50;42.20;;;;;;4427726;32;20163;-79
2021/05/15 12:06:14;;;;;;;4.68;2.35;;;25.70;42.70;;;;;;4426344;32;20169;-79
2021/05/15 12:08:43;;;;;;;4.55;2.15;;;24.90;44.10;;;;;;4426113;32;20166;-78
2021/05/15 12:11:11;;;;;;;2.60;2.20;;;25.40;44.40;;;;;;4427614;32;20318;-79
2021/05/15 12:13:49;;;;;;;3.65;2.47;;;25.40;43.30;;;;;;4426116;32;20594;-79
2021/05/15 12:16:15;;;;;;;3.78;2.30;;;26.40;43.10;;;;;;4427095;32;20200;-79
2021/05/15 12:18:42;;;;;;;4.03;1.92;;;26.90;40.90;;;;;;4426153;32;20170;-78
2021/05/15 12:21:09;;;;;;;4.72;2.60;;;27.00;41.30;;;;;;4426245;32;20154;-79
2021/05/15 12:23:36;;;;;;;3.08;2.45;;;27.30;40.30;;;;;;4426744;32;20196;-79
2021/05/15 12:26:08;;;;;;;3.20;2.30;;;26.00;41.20;;;;;;4425511;32;20158;-76
2021/05/15 12:28:47;;;;;;;5.87;2.60;;;26.00;42.00;;;;;;4424296;32;20206;-77
2021/05/15 12:31:29;;;;;;;2.53;2.12;;;25.60;42.10;;;;;;4426751;32;20195;-78
2021/05/15 12:33:57;;;;;;;3.55;2.10;;;25.40;43.00;;;;;;4428003;32;20210;-78
2021/05/15 12:36:33;;;;;;;7.78;2.40;;;25.50;42.50;;;;;;4426705;32;20211;-78
2021/05/15 12:39:01;;;;;;;4.55;2.28;;;26.30;42.40;;;;;;4426011;32;20201;-78
2021/05/15 12:41:30;;;;;;;3.50;2.12;;;26.70;40.50;;;;;;4419289;32;20139;-77
2021/05/15 12:44:05;;;;;;;32.78;5.62;;;26.80;40.60;;;;;;4413573;32;20167;-78
2021/05/15 12:46:34;;;;;;;7.37;2.60;;;27.80;39.90;;;;;;4412581;32;20158;-80